This is the latest recevied weather packets stored in our database for station/object SP3OTE-2. If no packets are shown the sender has not sent any weather packets the latest 1 day(s).
| Time | Temp. | Humidity | Pressure | Rain* | Wind** | Luminosity | Snow |
|---|---|---|---|---|---|---|---|
| 1778108967 | 15.56° C | 100% | 1006.8 hPa | - | - | - | - |
| 1778107166 | 15.56° C | 100% | 1007.2 hPa | - | - | - | - |
| 1778106566 | 15.56° C | 100% | 1007.3 hPa | - | - | - | - |
| 1778104765 | 16.11° C | 100% | 1007.5 hPa | - | - | - | - |
| 1778101163 | 16.11° C | 100% | 1007 hPa | - | - | - | - |
| 1778100563 | 15.56° C | 100% | 1006.7 hPa | - | - | - | - |
| 1778093962 | 18.33° C | 86% | 1006 hPa | - | - | - | - |
| 1778090959 | 19.44° C | 77% | 1005.3 hPa | - | - | - | - |
| 1778089158 | 20° C | 71% | 1005.7 hPa | - | - | - | - |
| 1778088558 | 20.56° C | 70% | 1006.3 hPa | - | - | - | - |
| 1778084956 | 32.78° C | 29% | 1005 hPa | - | - | - | - |
| 1778084356 | 33.33° C | 30% | 1005 hPa | - | - | - | - |
| 1778082555 | 32.78° C | 31% | 1005.1 hPa | - | - | - | - |
| 1778081955 | 32.22° C | 32% | 1005.2 hPa | - | - | - | - |
| 1778080154 | 28.89° C | 35% | 1005.5 hPa | - | - | - | - |
| 1778075952 | 28.33° C | 36% | 1005.7 hPa | - | - | - | - |
| 1778073551 | 25° C | 41% | 1006 hPa | - | - | - | - |
| 1778072951 | 25.56° C | 40% | 1006 hPa | - | - | - | - |
| 1778071150 | 25.56° C | 40% | 1006 hPa | - | - | - | - |
| 1778070550 | 25° C | 40% | 1005.9 hPa | - | - | - | - |
| 1778068149 | 25° C | 41% | 1005.8 hPa | - | - | - | - |
| 1778066348 | 23.89° C | 45% | 1005.8 hPa | - | - | - | - |
| 1778063347 | 22.22° C | 53% | 1006 hPa | - | - | - | - |
| 1778062146 | 21.67° C | 55% | 1006.1 hPa | - | - | - | - |
| 1778061546 | 21.67° C | 55% | 1006.1 hPa | - | - | - | - |
* Rain since midnight (hover to see other rain measurements)
** Current wind speed in m/s (hover to see current wind gust speed)